Time;durP1;ratioP1;P1;durP2;ratioP2;P2;SDS_P1;SDS_P2;PMS_P1;PMS_P2;Temp;Humidity;BMP_temperature;BMP_pressure;BME280_temperature;BME280_humidity;BME280_pressure;Samples;Min_cycle;Max_cycle;Signal;HPM_P1;HPM_P2
2022/08/04 00:00:05;;;;;;;9.80;7.10;;;;;;;18.06;63.90;100331.59;2049330;85;21624;-70
2022/08/04 00:03:20;;;;;;;9.90;7.67;;;;;;;18.03;64.11;100330.16;2052335;85;21069;-69
2022/08/04 00:06:51;;;;;;;9.03;7.70;;;;;;;17.98;64.17;100327.27;2070647;84;21010;-70
2022/08/04 00:10:03;;;;;;;12.43;7.97;;;;;;;17.94;64.31;100324.72;2068680;84;21089;-70
2022/08/04 00:13:04;;;;;;;10.32;7.50;;;;;;;17.91;64.29;100323.80;2072049;84;21532;-69
2022/08/04 00:16:08;;;;;;;8.03;7.22;;;;;;;17.91;64.33;100326.48;2070386;84;21052;-69
2022/08/04 00:19:28;;;;;;;10.60;7.55;;;;;;;17.91;64.38;100330.50;2066052;84;20958;-69
2022/08/04 00:22:31;;;;;;;8.23;7.03;;;;;;;17.96;64.48;100325.83;2063519;85;21061;-69
2022/08/04 00:25:32;;;;;;;9.63;7.22;;;;;;;18.00;64.43;100331.92;2065581;84;21014;-69
2022/08/04 00:28:37;;;;;;;12.45;7.97;;;;;;;17.97;64.33;100325.64;2070060;84;21006;-69
2022/08/04 00:31:42;;;;;;;9.78;8.88;;;;;;;17.92;64.38;100325.44;2078885;83;21446;-69
2022/08/04 00:34:43;;;;;;;8.68;7.83;;;;;;;17.82;64.49;100321.00;2123011;82;21008;-69
2022/08/04 00:37:45;;;;;;;10.63;8.10;;;;;;;17.80;64.57;100319.89;2117584;82;21012;-69
2022/08/04 00:40:58;;;;;;;12.35;7.20;;;;;;;17.80;64.58;100327.12;2116598;82;21075;-69
2022/08/04 00:44:26;;;;;;;7.83;6.75;;;;;;;17.81;64.65;100327.42;2120145;82;21061;-70
2022/08/04 00:48:17;;;;;;;7.97;7.33;;;;;;;17.83;64.66;100324.83;2079964;82;21000;-69
2022/08/04 00:51:42;;;;;;;11.22;7.05;;;;;;;17.86;64.73;100327.09;2118683;82;21136;-70
2022/08/04 00:55:20;;;;;;;8.90;8.03;;;;;;;17.73;64.93;100327.08;2118830;82;21147;-70
2022/08/04 00:58:50;;;;;;;9.35;7.95;;;;;;;17.64;65.00;100333.70;2117472;82;21060;-69
2022/08/04 01:02:30;;;;;;;8.28;6.83;;;;;;;17.48;65.14;100331.77;2120708;82;21051;-69
2022/08/04 01:05:43;;;;;;;12.58;7.47;;;;;;;17.41;65.18;100336.81;2118961;82;21076;-69
2022/08/04 01:09:02;;;;;;;8.93;6.40;;;;;;;17.30;65.37;100336.90;2117623;82;20957;-69
2022/08/04 01:12:54;;;;;;;11.50;7.17;;;;;;;17.27;65.50;100331.95;2116382;82;21075;-70
2022/08/04 01:16:06;;;;;;;8.83;7.95;;;;;;;17.23;65.61;100338.73;2119160;82;20969;-70
2022/08/04 01:19:21;;;;;;;11.03;8.10;;;;;;;17.18;65.88;100339.89;2120643;82;21052;-69
2022/08/04 01:22:43;;;;;;;12.37;6.92;;;;;;;17.16;66.11;100338.74;2097507;82;21596;-70
2022/08/04 01:26:09;;;;;;;9.40;7.92;;;;;;;17.08;66.04;100341.61;2117577;82;21021;-69
2022/08/04 01:29:13;;;;;;;10.35;9.00;;;;;;;16.99;66.15;100340.16;2116266;82;21103;-69
2022/08/04 01:32:46;;;;;;;9.28;8.28;;;;;;;16.95;66.42;100342.43;2100206;82;21671;-69
2022/08/04 01:35:54;;;;;;;9.20;8.28;;;;;;;16.90;66.67;100343.55;2065956;84;21018;-69
2022/08/04 01:38:55;;;;;;;13.48;9.90;;;;;;;16.85;66.83;100337.14;2067849;84;20977;-69
2022/08/04 01:41:59;;;;;;;11.63;9.48;;;;;;;16.82;67.01;100346.41;2063688;84;21109;-69
2022/08/04 01:45:07;;;;;;;10.45;9.30;;;;;;;16.84;67.09;100339.49;2065395;84;21073;-69
2022/08/04 01:48:11;;;;;;;10.28;7.58;;;;;;;16.86;67.14;100344.97;2071889;84;21041;-70
2022/08/04 01:51:13;;;;;;;10.60;7.15;;;;;;;16.88;67.05;100336.73;2070408;84;21080;-70
2022/08/04 01:54:17;;;;;;;8.80;7.37;;;;;;;16.87;66.99;100344.48;2068393;84;21031;-69
2022/08/04 01:57:18;;;;;;;10.18;7.80;;;;;;;16.74;66.93;100341.20;2067886;84;21592;-69
2022/08/04 02:00:26;;;;;;;11.45;9.50;;;;;;;16.70;67.12;100334.61;2068942;84;21073;-70
2022/08/04 02:03:32;;;;;;;11.20;9.15;;;;;;;16.62;67.17;100346.31;2072704;84;21021;-69
2022/08/04 02:07:07;;;;;;;13.60;9.70;;;;;;;16.57;67.31;100341.55;2071406;84;21433;-69
2022/08/04 02:10:36;;;;;;;11.28;9.40;;;;;;;16.55;67.62;100338.76;2068589;84;21117;-69
2022/08/04 02:13:57;;;;;;;11.50;10.38;;;;;;;16.54;67.86;100335.78;1994756;88;21040;-69
2022/08/04 02:16:58;;;;;;;12.00;10.40;;;;;;;16.51;68.07;100332.98;1993254;88;21105;-69
2022/08/04 02:20:17;;;;;;;11.65;10.53;;;;;;;16.56;68.19;100331.87;2069448;84;21057;-69
2022/08/04 02:23:27;;;;;;;13.65;12.25;;;;;;;16.57;68.19;100334.86;2059979;84;21049;-70
2022/08/04 02:26:32;;;;;;;12.83;11.47;;;;;;;16.54;68.34;100335.26;2065407;84;21018;-69
2022/08/04 02:29:44;;;;;;;13.90;10.88;;;;;;;16.54;68.37;100327.22;2067136;84;21375;-69
2022/08/04 02:32:48;;;;;;;13.20;11.48;;;;;;;16.60;68.34;100328.27;2094247;82;21119;-70
2022/08/04 02:35:54;;;;;;;19.40;10.85;;;;;;;16.58;68.41;100319.61;2130475;83;23044;-70
2022/08/04 02:39:02;;;;;;;14.78;11.00;;;;;;;16.58;68.48;100319.12;2132570;82;21037;-69
2022/08/04 02:42:05;;;;;;;16.32;12.58;;;;;;;16.59;68.51;100317.26;2131541;82;21012;-69
2022/08/04 02:45:09;;;;;;;15.28;12.53;;;;;;;16.57;68.57;100313.42;2133192;82;20990;-70
2022/08/04 02:48:12;;;;;;;13.93;12.47;;;;;;;16.53;68.65;100311.37;2131150;82;21709;-69
2022/08/04 02:51:18;;;;;;;16.70;13.05;;;;;;;16.52;68.73;100307.02;2130903;82;21516;-70
2022/08/04 02:54:27;;;;;;;15.88;12.63;;;;;;;16.52;68.88;100308.36;2081565;84;21501;-70
2022/08/04 02:57:30;;;;;;;17.17;12.55;;;;;;;16.51;68.97;100302.70;2140747;82;21036;-70
2022/08/04 03:00:32;;;;;;;15.88;12.00;;;;;;;16.48;69.10;100302.59;2140937;82;21056;-69
2022/08/04 03:04:04;;;;;;;16.00;12.20;;;;;;;16.47;69.16;100307.64;2140799;82;21549;-69
2022/08/04 03:08:02;;;;;;;16.40;12.45;;;;;;;16.48;69.23;100312.48;2141189;82;21556;-74
2022/08/04 03:11:31;;;;;;;18.82;14.03;;;;;;;16.49;69.45;100309.58;2139636;82;21032;-74
2022/08/04 03:15:13;;;;;;;15.25;13.75;;;;;;;16.47;69.53;100306.79;2116906;83;20978;-74
2022/08/04 03:19:04;;;;;;;16.23;13.70;;;;;;;16.44;69.60;100312.03;2141067;82;21011;-74
2022/08/04 03:22:48;;;;;;;23.27;14.03;;;;;;;16.40;69.71;100316.15;2141127;82;21060;-73
2022/08/04 03:26:16;;;;;;;15.03;13.53;;;;;;;16.36;69.85;100318.92;2140598;82;20992;-75
2022/08/04 03:29:44;;;;;;;16.00;12.95;;;;;;;16.40;69.95;100317.48;2140892;82;21046;-74
2022/08/04 03:33:23;;;;;;;14.95;12.10;;;;;;;16.54;70.07;100319.19;2139885;82;21061;-74
2022/08/04 03:36:32;;;;;;;13.80;12.37;;;;;;;16.75;69.99;100314.22;2102868;82;21002;-72
2022/08/04 03:40:14;;;;;;;15.35;12.45;;;;;;;16.92;69.75;100313.84;2132782;82;21045;-71
2022/08/04 03:43:40;;;;;;;13.08;11.68;;;;;;;17.08;69.55;100322.03;2134647;82;21591;-74
2022/08/04 03:47:08;;;;;;;16.67;14.13;;;;;;;17.21;69.30;100314.83;2134534;82;21069;-71
2022/08/04 03:50:38;;;;;;;17.37;13.62;;;;;;;17.28;69.04;100322.86;2134758;82;21065;-63
2022/08/04 03:53:59;;;;;;;15.18;13.68;;;;;;;17.26;68.90;100322.27;2104132;83;21524;-63
2022/08/04 03:57:36;;;;;;;18.35;12.30;;;;;;;17.37;68.99;100322.14;2107333;83;21563;-67
2022/08/04 04:01:07;;;;;;;13.30;11.88;;;;;;;17.52;68.92;100313.91;2134402;82;21576;-68
2022/08/04 04:04:25;;;;;;;18.05;12.78;;;;;;;17.68;68.86;100322.84;2132646;83;20993;-67
2022/08/04 04:07:37;;;;;;;15.85;13.22;;;;;;;17.83;68.65;100324.83;2134453;82;21026;-68
2022/08/04 04:10:53;;;;;;;14.30;12.80;;;;;;;18.05;68.54;100317.88;2135293;83;21076;-67
2022/08/04 04:14:20;;;;;;;14.85;13.08;;;;;;;18.26;68.32;100320.27;2134437;82;21030;-68
2022/08/04 04:17:49;;;;;;;13.80;12.40;;;;;;;18.59;68.06;100320.14;2114635;83;20981;-69
2022/08/04 04:21:37;;;;;;;15.28;12.93;;;;;;;18.93;67.68;100311.92;2135115;82;21423;-69
2022/08/04 04:25:06;;;;;;;17.77;12.45;;;;;;;19.26;67.29;100319.76;2134768;82;21096;-68
2022/08/04 04:28:51;;;;;;;15.85;12.20;;;;;;;19.68;66.99;100314.14;2106331;82;21065;-68
2022/08/04 04:32:21;;;;;;;14.25;12.20;;;;;;;20.21;66.50;100316.77;2134105;82;21733;-68
2022/08/04 04:35:34;;;;;;;19.35;13.15;;;;;;;20.68;65.71;100318.39;2134040;82;21013;-69
2022/08/04 04:39:03;;;;;;;14.00;12.60;;;;;;;21.04;64.92;100316.64;2135805;82;20972;-70
2022/08/04 04:42:25;;;;;;;13.13;11.85;;;;;;;21.42;64.36;100323.00;2134155;82;21499;-70
2022/08/04 04:45:38;;;;;;;15.50;12.15;;;;;;;21.75;63.48;100316.22;2135868;82;20986;-70
2022/08/04 04:49:20;;;;;;;14.85;11.85;;;;;;;22.04;63.18;100318.47;2131684;82;21151;-70
2022/08/04 04:52:49;;;;;;;13.22;11.40;;;;;;;22.42;62.76;100321.72;2134663;82;21024;-70
2022/08/04 04:56:18;;;;;;;12.18;10.95;;;;;;;22.86;62.08;100324.70;2126395;82;21600;-70
2022/08/04 04:59:22;;;;;;;13.60;11.77;;;;;;;23.35;61.31;100324.52;2133568;83;21650;-70
2022/08/04 05:02:53;;;;;;;13.55;11.97;;;;;;;23.75;59.94;100319.46;2134106;82;22924;-70
2022/08/04 05:06:38;;;;;;;12.80;11.60;;;;;;;23.95;59.54;100321.63;2135194;82;21465;-71
2022/08/04 05:10:01;;;;;;;12.60;11.00;;;;;;;24.20;59.22;100318.44;2132693;83;21538;-70
2022/08/04 05:13:28;;;;;;;12.43;10.75;;;;;;;24.68;58.51;100324.99;2132142;82;20985;-70
2022/08/04 05:16:55;;;;;;;11.53;10.40;;;;;;;25.02;58.05;100323.42;2131973;82;21108;-70
2022/08/04 05:20:07;;;;;;;13.68;11.40;;;;;;;25.41;57.44;100321.34;2135404;82;21067;-71
2022/08/04 05:23:13;;;;;;;12.35;11.10;;;;;;;25.97;56.72;100321.47;2133814;83;21120;-70
2022/08/04 05:26:18;;;;;;;12.55;10.45;;;;;;;26.51;56.02;100325.25;2135046;82;21115;-70
2022/08/04 05:29:30;;;;;;;12.80;11.50;;;;;;;26.94;54.91;100325.88;2134763;82;21481;-70
2022/08/04 05:32:51;;;;;;;12.43;10.20;;;;;;;27.12;54.07;100327.28;2130403;82;21547;-70
2022/08/04 05:35:57;;;;;;;10.88;9.78;;;;;;;27.26;53.33;100325.13;2117524;83;21541;-70
2022/08/04 05:39:00;;;;;;;13.00;10.23;;;;;;;27.54;52.84;100332.99;2046140;85;21057;-70
2022/08/04 05:42:03;;;;;;;13.18;11.35;;;;;;;27.69;51.88;100334.35;2120981;82;21151;-70
2022/08/04 05:45:08;;;;;;;11.75;10.38;;;;;;;27.83;51.52;100333.27;2122816;82;21022;-71
2022/08/04 05:48:10;;;;;;;13.55;9.75;;;;;;;28.13;51.08;100331.81;2122338;82;21616;-70
2022/08/04 05:51:13;;;;;;;12.63;9.88;;;;;;;28.32;50.42;100333.91;2072877;84;21065;-70
2022/08/04 05:54:18;;;;;;;10.70;9.50;;;;;;;28.66;49.93;100330.48;2075186;84;21006;-70
2022/08/04 05:57:20;;;;;;;10.63;9.53;;;;;;;28.87;49.32;100324.38;2074947;84;21088;-71
2022/08/04 06:00:32;;;;;;;12.85;8.75;;;;;;;29.16;49.14;100334.01;2072252;84;21024;-70
2022/08/04 06:03:36;;;;;;;11.88;9.18;;;;;;;29.33;48.49;100330.31;2075937;84;21013;-70
2022/08/04 06:06:39;;;;;;;10.25;9.23;;;;;;;29.48;47.96;100326.09;2073518;84;21018;-70
2022/08/04 06:09:41;;;;;;;12.58;9.80;;;;;;;29.30;46.73;100334.17;2057438;84;21587;-70
2022/08/04 06:13:00;;;;;;;10.50;8.73;;;;;;;29.19;45.68;100336.98;2073903;84;21567;-71
2022/08/04 06:16:04;;;;;;;9.37;8.37;;;;;;;29.19;46.14;100333.44;2074866;84;21124;-70
2022/08/04 06:19:09;;;;;;;10.20;8.65;;;;;;;29.09;45.99;100334.87;2072139;84;21572;-70
2022/08/04 06:22:13;;;;;;;9.48;8.58;;;;;;;29.21;45.95;100340.25;2055270;84;20989;-69
2022/08/04 06:25:19;;;;;;;10.23;9.23;;;;;;;29.29;45.61;100340.19;2073445;84;21052;-69
2022/08/04 06:28:22;;;;;;;9.23;7.92;;;;;;;29.29;45.61;100340.19;2071903;84;21104;-69
2022/08/04 06:31:41;;;;;;;11.05;8.20;;;;;;;29.17;45.51;100341.09;2073257;84;21143;-69
2022/08/04 06:34:35;;;;;;;9.75;8.55;;;;;;;29.27;44.64;100342.39;2080136;84;21094;-69
2022/08/04 06:37:37;;;;;;;11.70;8.10;;;;;;;29.22;44.97;100341.87;2076349;83;21470;-69
2022/08/04 06:40:38;;;;;;;9.90;8.05;;;;;;;29.31;44.65;100340.70;2080694;84;21109;-69
2022/08/04 06:43:40;;;;;;;9.23;8.25;;;;;;;29.19;43.86;100337.53;2084210;83;20974;-68
2022/08/04 06:46:43;;;;;;;9.65;8.30;;;;;;;29.12;44.50;100343.33;2073807;84;20985;-68
2022/08/04 06:49:49;;;;;;;11.63;8.85;;;;;;;29.34;44.37;100336.58;2079132;84;21466;-69
2022/08/04 06:52:50;;;;;;;8.83;7.92;;;;;;;29.46;43.58;100315.98;2083419;83;20986;-69
2022/08/04 06:55:52;;;;;;;9.98;8.23;;;;;;;29.46;43.58;100315.98;2080493;83;21675;-68
2022/08/04 06:58:55;;;;;;;9.48;8.48;;;;;;;30.07;43.02;100338.34;2081578;83;21038;-69
2022/08/04 07:01:58;;;;;;;10.30;8.13;;;;;;;30.07;43.02;100338.34;2080385;84;21049;-71
2022/08/04 07:04:59;;;;;;;11.40;7.72;;;;;;;29.81;42.39;100315.37;2082688;83;21422;-71
2022/08/04 07:08:01;;;;;;;9.23;8.35;;;;;;;29.64;42.28;100317.75;2084927;84;21064;-68
2022/08/04 07:11:04;;;;;;;8.88;8.00;;;;;;;29.60;41.25;100323.52;2081556;83;21093;-69
2022/08/04 07:14:06;;;;;;;11.18;7.92;;;;;;;29.66;42.62;100333.33;2076731;84;21065;-72
2022/08/04 07:17:09;;;;;;;11.53;8.00;;;;;;;30.06;41.72;100331.25;2086126;83;21051;-71
2022/08/04 07:20:11;;;;;;;8.85;7.90;;;;;;;29.80;41.33;100326.06;2081515;83;21563;-68
2022/08/04 07:23:18;;;;;;;8.63;7.83;;;;;;;29.93;42.16;100335.48;2087779;83;21049;-69
2022/08/04 07:26:23;;;;;;;9.00;7.97;;;;;;;30.15;42.00;100337.70;2081317;84;21061;-70
2022/08/04 07:29:25;;;;;;;7.80;7.00;;;;;;;30.04;41.54;100334.26;2078965;83;21004;-70
2022/08/04 07:32:26;;;;;;;8.48;6.78;;;;;;;30.21;41.19;100329.68;2081624;83;21468;-70
2022/08/04 07:35:28;;;;;;;8.00;7.22;;;;;;;30.44;41.31;100326.70;2087913;83;21022;-71
2022/08/04 07:38:30;;;;;;;8.23;7.40;;;;;;;30.65;41.41;100332.70;2089754;83;21072;-70
2022/08/04 07:41:32;;;;;;;9.20;7.47;;;;;;;30.78;40.77;100329.79;2087509;83;21116;-72
2022/08/04 07:44:35;;;;;;;8.13;7.10;;;;;;;30.51;39.47;100329.06;2088944;83;21362;-70
2022/08/04 07:47:39;;;;;;;7.15;6.45;;;;;;;30.43;38.26;100331.09;2087820;84;21001;-70
2022/08/04 07:50:46;;;;;;;8.83;6.40;;;;;;;30.22;38.23;100322.34;2087966;83;21626;-70
2022/08/04 07:53:47;;;;;;;8.08;6.95;;;;;;;30.06;38.54;100328.52;2083579;83;21091;-70
2022/08/04 07:56:50;;;;;;;9.75;6.65;;;;;;;29.99;38.74;100326.14;2083096;84;21069;-70
2022/08/04 07:59:51;;;;;;;9.83;7.00;;;;;;;29.99;40.05;100330.77;2089030;83;20981;-70
2022/08/04 08:02:54;;;;;;;7.08;6.37;;;;;;;29.89;38.96;100322.95;2084918;84;21089;-70
2022/08/04 08:05:56;;;;;;;9.10;6.78;;;;;;;30.03;39.32;100320.33;2088541;83;21021;-71
2022/08/04 08:09:01;;;;;;;7.33;6.60;;;;;;;30.34;40.17;100319.42;2084546;84;21005;-70
2022/08/04 08:12:02;;;;;;;12.35;7.40;;;;;;;30.29;39.71;100320.05;2084018;84;21021;-70
2022/08/04 08:15:07;;;;;;;8.93;7.35;;;;;;;30.61;38.96;100312.51;2086133;84;21052;-70
2022/08/04 08:18:08;;;;;;;12.10;7.22;;;;;;;30.62;38.38;100311.39;2085740;83;21567;-70
2022/08/04 08:21:09;;;;;;;8.88;7.55;;;;;;;30.78;39.01;100320.20;2083330;84;21753;-70
2022/08/04 08:24:11;;;;;;;10.55;7.33;;;;;;;30.82;38.11;100312.48;2088759;83;21076;-70
2022/08/04 08:27:12;;;;;;;13.88;6.92;;;;;;;30.83;39.26;100317.39;2083430;83;21021;-71
2022/08/04 08:30:13;;;;;;;7.85;7.15;;;;;;;30.85;38.17;100313.81;2088108;84;21041;-72
2022/08/04 08:33:15;;;;;;;10.25;6.95;;;;;;;30.99;38.11;100315.24;2083387;84;21076;-70
2022/08/04 08:36:50;;;;;;;8.10;6.62;;;;;;;31.31;38.10;100320.46;2068561;85;21053;-70
2022/08/04 08:40:32;;;;;;;8.00;6.85;;;;;;;31.41;37.71;100313.48;2069612;85;21033;-72
2022/08/04 08:44:24;;;;;;;6.70;6.08;;;;;;;31.48;37.11;100317.46;2067054;85;21033;-72
2022/08/04 08:47:56;;;;;;;7.45;6.22;;;;;;;31.20;36.93;100318.48;2068271;85;21033;-71
2022/08/04 08:51:35;;;;;;;8.13;5.85;;;;;;;31.25;37.38;100324.69;2070475;85;21081;-71
2022/08/04 08:55:08;;;;;;;9.30;6.10;;;;;;;31.45;37.10;100324.08;2070703;85;21069;-71
2022/08/04 08:58:23;;;;;;;7.95;5.75;;;;;;;31.51;36.33;100320.69;2067722;85;21065;-71
2022/08/04 09:02:07;;;;;;;6.95;5.20;;;;;;;31.27;35.75;100325.18;2069094;84;21120;-71
2022/08/04 09:05:45;;;;;;;5.40;4.90;;;;;;;31.13;35.56;100317.47;2069664;85;20999;-70
2022/08/04 09:09:21;;;;;;;6.67;5.58;;;;;;;31.27;35.56;100325.18;2043873;85;21616;-71
2022/08/04 09:13:06;;;;;;;6.60;5.15;;;;;;;31.22;35.35;100313.48;2067743;85;21985;-70
2022/08/04 09:16:30;;;;;;;8.00;5.62;;;;;;;31.26;34.99;100309.86;2071592;85;21045;-71
2022/08/04 09:19:49;;;;;;;5.20;4.80;;;;;;;31.48;35.03;100313.88;2070001;85;21481;-71
2022/08/04 09:23:22;;;;;;;6.75;5.28;;;;;;;31.68;34.80;100317.64;2059476;85;21136;-71
2022/08/04 09:26:39;;;;;;;5.28;4.67;;;;;;;31.77;34.97;100318.31;2033858;86;21021;-71
2022/08/04 09:29:58;;;;;;;4.75;4.30;;;;;;;31.86;33.85;100310.43;2032687;87;21077;-71
2022/08/04 09:33:08;;;;;;;5.28;4.47;;;;;;;31.77;33.29;100318.31;2018337;86;21129;-71
2022/08/04 09:36:22;;;;;;;4.53;4.22;;;;;;;31.89;33.70;100313.94;2070084;84;21653;-71
2022/08/04 09:39:38;;;;;;;5.85;4.20;;;;;;;32.01;32.99;100313.45;2094890;83;21009;-72
2022/08/04 09:43:14;;;;;;;4.58;4.20;;;;;;;31.92;32.33;100301.56;2060694;84;21025;-71
2022/08/04 09:46:45;;;;;;;5.10;4.45;;;;;;;32.00;32.95;100306.34;2092011;84;21038;-70
2022/08/04 09:50:18;;;;;;;5.78;4.10;;;;;;;31.91;32.59;100292.53;2127286;82;21031;-71
2022/08/04 09:53:51;;;;;;;3.80;3.50;;;;;;;31.99;32.16;100298.41;2128247;82;21066;-70
2022/08/04 09:57:25;;;;;;;4.60;4.17;;;;;;;31.92;31.79;100304.31;2127164;82;21002;-70
2022/08/04 10:00:34;;;;;;;6.28;4.28;;;;;;;31.87;31.90;100296.95;2072128;84;21006;-70
2022/08/04 10:03:40;;;;;;;4.67;4.23;;;;;;;32.22;32.33;100297.39;2123712;82;21049;-70
2022/08/04 10:07:26;;;;;;;5.62;4.12;;;;;;;32.18;31.51;100299.67;2071398;84;20998;-71
2022/08/04 10:10:58;;;;;;;4.83;4.40;;;;;;;32.20;31.64;100290.58;2088440;83;21469;-70
2022/08/04 10:14:09;;;;;;;4.45;4.05;;;;;;;32.37;31.47;100288.00;2131400;82;21706;-70
2022/08/04 10:17:22;;;;;;;10.45;4.60;;;;;;;32.36;29.90;100291.87;2129626;82;21107;-71
2022/08/04 10:20:59;;;;;;;4.95;4.45;;;;;;;32.26;30.77;100292.09;2129943;82;21025;-70
2022/08/04 10:24:34;;;;;;;7.08;4.60;;;;;;;32.18;30.75;100287.31;2131095;82;21057;-70
2022/08/04 10:27:54;;;;;;;4.80;4.17;;;;;;;32.09;31.11;100288.03;2133072;82;21915;-70
2022/08/04 10:31:00;;;;;;;6.40;4.30;;;;;;;32.40;32.23;100286.00;2132834;82;21024;-71
2022/08/04 10:34:21;;;;;;;6.35;4.40;;;;;;;32.50;29.88;100283.07;2129822;82;21228;-70
2022/08/04 10:37:27;;;;;;;5.78;5.03;;;;;;;32.40;30.56;100277.77;2117810;82;21049;-70
2022/08/04 10:41:06;;;;;;;5.50;4.65;;;;;;;32.24;30.75;100280.59;2098570;83;20990;-71
2022/08/04 10:44:31;;;;;;;4.90;4.50;;;;;;;32.34;30.91;100271.58;2116827;82;21026;-69
2022/08/04 10:47:44;;;;;;;4.78;4.42;;;;;;;32.43;30.74;100274.40;2113818;82;21018;-70
2022/08/04 10:50:53;;;;;;;5.25;4.45;;;;;;;32.31;30.70;100268.64;2114501;82;20978;-70
2022/08/04 10:54:03;;;;;;;5.03;4.05;;;;;;;32.55;32.04;100271.98;2096708;82;21097;-70
2022/08/04 10:57:06;;;;;;;;;;;;;;;32.75;31.00;100274.80;2116388;83;21109;-70
2022/08/04 11:00:15;;;;;;;4.25;3.95;;;;;;;32.50;30.31;100268.53;2094030;83;20183;-70
2022/08/04 11:03:39;;;;;;;4.03;3.70;;;;;;;32.41;30.76;100273.08;2119285;82;20994;-72
2022/08/04 11:06:42;;;;;;;5.05;4.08;;;;;;;32.48;30.35;100266.65;2118616;82;21066;-71
2022/08/04 11:09:45;;;;;;;4.17;3.77;;;;;;;32.52;30.86;100258.86;2118759;82;21052;-70
2022/08/04 11:12:50;;;;;;;5.65;3.83;;;;;;;32.77;30.43;100261.54;2116128;82;21041;-70
2022/08/04 11:15:54;;;;;;;8.15;3.87;;;;;;;32.92;30.13;100257.63;2117136;83;21381;-70
2022/08/04 11:19:44;;;;;;;3.92;3.60;;;;;;;33.10;30.41;100253.07;2119000;83;21053;-70
2022/08/04 11:23:11;;;;;;;4.22;3.85;;;;;;;33.29;29.27;100256.98;2119050;82;21057;-70
2022/08/04 11:26:20;;;;;;;4.75;4.15;;;;;;;32.96;29.22;100250.37;2119329;82;21828;-70
2022/08/04 11:29:47;;;;;;;3.90;3.52;;;;;;;32.74;29.85;100251.75;2121355;82;21006;-72
2022/08/04 11:33:14;;;;;;;4.90;4.25;;;;;;;32.72;29.56;100252.61;2119699;82;21036;-70
2022/08/04 11:37:00;;;;;;;4.53;4.10;;;;;;;32.60;29.69;100251.23;2112515;82;21049;-70
2022/08/04 11:40:12;;;;;;;4.33;4.03;;;;;;;32.41;29.21;100253.33;2119504;82;21028;-70
2022/08/04 11:43:28;;;;;;;4.45;3.70;;;;;;;32.36;29.66;100252.06;2118356;82;21005;-70
2022/08/04 11:46:44;;;;;;;5.17;4.70;;;;;;;32.39;29.65;100244.58;2116591;82;21445;-70
2022/08/04 11:49:50;;;;;;;5.53;3.98;;;;;;;32.42;29.57;100246.70;2121305;82;21060;-71
2022/08/04 11:52:56;;;;;;;5.42;4.50;;;;;;;32.58;30.50;100235.65;2118670;82;21528;-70
2022/08/04 11:56:05;;;;;;;5.15;4.30;;;;;;;32.70;29.87;100233.71;2119381;82;21028;-70
2022/08/04 11:59:09;;;;;;;4.47;4.17;;;;;;;32.48;29.75;100238.62;2117069;82;21096;-70
2022/08/04 12:02:28;;;;;;;9.45;4.25;;;;;;;32.33;30.34;100240.33;2120772;82;21024;-70
2022/08/04 12:05:37;;;;;;;4.00;3.67;;;;;;;32.30;30.72;100242.33;2121452;82;21064;-70
2022/08/04 12:08:56;;;;;;;4.55;4.10;;;;;;;32.33;29.78;100238.96;2120658;82;21333;-70
2022/08/04 12:12:26;;;;;;;4.67;4.25;;;;;;;32.35;29.28;100233.95;2117812;82;21045;-70
2022/08/04 12:15:38;;;;;;;4.95;4.20;;;;;;;32.42;30.03;100233.55;2117172;83;20961;-71
2022/08/04 12:19:00;;;;;;;5.58;4.25;;;;;;;32.55;30.51;100224.45;2121157;82;21020;-70
2022/08/04 12:22:09;;;;;;;4.90;4.50;;;;;;;32.67;29.31;100240.40;2119645;82;21100;-71
2022/08/04 12:25:21;;;;;;;6.70;4.70;;;;;;;32.41;29.63;100231.90;2120704;82;21021;-71
2022/08/04 12:28:33;;;;;;;5.33;4.72;;;;;;;32.39;30.19;100234.97;2116582;82;21014;-71
2022/08/04 12:31:48;;;;;;;5.85;5.25;;;;;;;32.42;30.58;100233.55;2119177;82;22326;-71
2022/08/04 12:35:10;;;;;;;5.47;4.97;;;;;;;32.29;30.54;100228.33;2116119;82;21120;-71
2022/08/04 12:38:13;;;;;;;5.72;5.15;;;;;;;32.23;31.10;100229.01;2116755;82;21042;-68
2022/08/04 12:41:19;;;;;;;5.30;4.80;;;;;;;32.23;30.97;100225.45;2119275;82;20973;-71
2022/08/04 12:44:21;;;;;;;6.17;4.90;;;;;;;32.14;31.64;100220.70;2121512;82;21543;-71
2022/08/04 12:47:26;;;;;;;5.40;4.90;;;;;;;32.09;31.31;100225.48;2118682;82;21083;-71
2022/08/04 12:50:29;;;;;;;5.65;5.10;;;;;;;32.08;31.75;100219.19;2121265;82;20967;-71
2022/08/04 12:53:38;;;;;;;5.50;5.00;;;;;;;32.20;31.80;100202.75;2120745;82;21106;-71
2022/08/04 12:56:41;;;;;;;8.13;5.25;;;;;;;32.41;31.58;100211.30;2119224;82;21100;-71
2022/08/04 12:59:44;;;;;;;7.33;4.97;;;;;;;32.46;31.61;100202.42;2120515;82;21026;-72
2022/08/04 13:02:46;;;;;;;5.08;4.67;;;;;;;32.46;31.93;100201.05;2116815;82;21064;-70
2022/08/04 13:05:52;;;;;;;4.67;4.28;;;;;;;32.27;31.66;100206.70;2119846;82;21506;-72
2022/08/04 13:08:55;;;;;;;5.25;4.75;;;;;;;32.12;31.14;100196.86;2117063;82;21027;-71
2022/08/04 13:12:01;;;;;;;5.50;4.22;;;;;;;32.12;31.43;100192.73;2117219;82;21499;-71
2022/08/04 13:15:10;;;;;;;6.42;4.78;;;;;;;32.10;31.47;100201.02;2115445;82;21098;-71
2022/08/04 13:18:13;;;;;;;5.12;4.72;;;;;;;32.12;31.34;100189.19;2119690;82;21685;-71
2022/08/04 13:21:19;;;;;;;5.15;4.70;;;;;;;32.28;31.29;100191.03;2117695;82;20986;-71
2022/08/04 13:24:23;;;;;;;4.92;4.45;;;;;;;32.25;31.46;100176.56;2117023;82;21014;-71
2022/08/04 13:27:26;;;;;;;8.83;4.45;;;;;;;32.14;31.07;100180.90;2118090;82;21020;-71
2022/08/04 13:30:31;;;;;;;5.53;4.70;;;;;;;32.14;30.88;100181.47;2101310;83;21045;-71
2022/08/04 13:33:39;;;;;;;7.28;4.62;;;;;;;32.17;30.85;100174.55;2120706;82;21040;-71
2022/08/04 13:36:42;;;;;;;5.22;4.72;;;;;;;32.26;30.77;100172.68;2123596;82;21041;-71
2022/08/04 13:39:48;;;;;;;4.65;3.90;;;;;;;32.35;30.89;100175.77;2117870;82;21684;-71
2022/08/04 13:42:52;;;;;;;6.17;4.47;;;;;;;32.38;30.48;100171.02;2116843;83;21031;-71
2022/08/04 13:46:03;;;;;;;4.35;3.95;;;;;;;32.30;30.90;100172.33;2117505;82;21005;-72
2022/08/04 13:49:09;;;;;;;3.98;3.50;;;;;;;32.30;31.35;100172.33;2118730;82;21037;-71
2022/08/04 13:52:10;;;;;;;4.80;4.37;;;;;;;32.30;30.48;100169.58;2115687;82;20997;-71
2022/08/04 13:55:31;;;;;;;4.62;3.75;;;;;;;32.29;30.70;100169.31;2117900;82;20946;-71
2022/08/04 13:58:44;;;;;;;3.85;3.55;;;;;;;32.30;29.65;100165.46;2117140;82;21089;-71
2022/08/04 14:01:56;;;;;;;4.10;3.70;;;;;;;32.27;29.94;100161.94;2117413;82;20970;-70
2022/08/04 14:05:02;;;;;;;4.42;3.92;;;;;;;32.31;29.77;100158.27;2119121;82;22440;-70
2022/08/04 14:08:14;;;;;;;4.25;3.85;;;;;;;32.28;30.01;100159.47;2120412;83;20975;-70
2022/08/04 14:11:20;;;;;;;4.95;4.45;;;;;;;32.26;30.51;100158.95;2116029;82;21058;-70
2022/08/04 14:14:28;;;;;;;4.85;4.45;;;;;;;32.40;30.22;100151.47;2116880;82;21065;-70
2022/08/04 14:17:29;;;;;;;4.90;4.35;;;;;;;32.46;30.22;100146.70;2118506;82;21079;-70
2022/08/04 14:20:30;;;;;;;6.08;4.25;;;;;;;32.36;30.37;100157.35;2119487;82;21080;-70
2022/08/04 14:23:51;;;;;;;6.85;4.35;;;;;;;32.19;29.10;100151.73;2114392;82;21009;-71
2022/08/04 14:27:00;;;;;;;4.47;4.03;;;;;;;31.94;28.72;100148.44;2115991;82;21104;-70
2022/08/04 14:30:01;;;;;;;;;;;;;;;31.78;29.16;100147.93;2120697;82;21045;-70
2022/08/04 14:33:10;;;;;;;4.75;4.35;;;;;;;31.65;29.55;100148.75;2117450;82;20544;-70
2022/08/04 14:36:12;;;;;;;5.65;4.22;;;;;;;31.63;30.13;100144.96;2121980;82;21075;-70
2022/08/04 14:39:13;;;;;;;7.47;4.10;;;;;;;31.70;30.07;100150.83;2132017;82;20993;-70
2022/08/04 14:42:15;;;;;;;4.25;3.85;;;;;;;31.70;30.43;100141.80;2132261;82;21009;-70
2022/08/04 14:45:16;;;;;;;5.17;3.92;;;;;;;31.64;29.92;100140.28;2131816;82;21057;-70
2022/08/04 14:48:17;;;;;;;4.10;3.80;;;;;;;31.63;29.28;100141.41;2072866;84;21061;-70
2022/08/04 14:51:18;;;;;;;3.80;3.37;;;;;;;31.58;29.37;100136.84;2073354;84;21030;-70
2022/08/04 14:54:29;;;;;;;4.22;3.92;;;;;;;31.49;29.45;100129.89;2131584;82;21504;-70
2022/08/04 14:57:35;;;;;;;4.00;3.70;;;;;;;31.41;30.08;100132.55;2133582;82;20994;-70